sensor_id;sensor_type;location;lat;lon;timestamp;P1;durP1;ratioP1;P2;durP2;ratioP2
69750;SDS011;57335;52.288;6.056;2024-01-11T00:04:13;16.45;;;4.15;;
69750;SDS011;57335;52.288;6.056;2024-01-11T00:06:43;5.72;;;2.05;;
69750;SDS011;57335;52.288;6.056;2024-01-11T00:09:11;14.77;;;4.07;;
69750;SDS011;57335;52.288;6.056;2024-01-11T00:14:04;11.23;;;3.88;;
69750;SDS011;57335;52.288;6.056;2024-01-11T00:16:30;11.52;;;4.43;;
69750;SDS011;57335;52.288;6.056;2024-01-11T00:21:24;15.02;;;4.97;;
69750;SDS011;57335;52.288;6.056;2024-01-11T00:23:51;10.85;;;4.22;;
69750;SDS011;57335;52.288;6.056;2024-01-11T00:26:17;11.13;;;3.85;;
69750;SDS011;57335;52.288;6.056;2024-01-11T00:28:44;16.30;;;4.40;;
69750;SDS011;57335;52.288;6.056;2024-01-11T00:31:11;9.73;;;3.90;;
69750;SDS011;57335;52.288;6.056;2024-01-11T00:33:38;12.70;;;4.32;;
69750;SDS011;57335;52.288;6.056;2024-01-11T00:36:05;18.48;;;5.47;;
69750;SDS011;57335;52.288;6.056;2024-01-11T00:38:32;12.95;;;5.45;;
69750;SDS011;57335;52.288;6.056;2024-01-11T00:40:58;10.55;;;4.32;;
69750;SDS011;57335;52.288;6.056;2024-01-11T00:43:25;14.65;;;5.28;;
69750;SDS011;57335;52.288;6.056;2024-01-11T00:45:51;15.52;;;5.53;;
69750;SDS011;57335;52.288;6.056;2024-01-11T00:48:18;13.68;;;4.82;;
69750;SDS011;57335;52.288;6.056;2024-01-11T00:50:45;15.95;;;5.60;;
69750;SDS011;57335;52.288;6.056;2024-01-11T00:55:40;15.20;;;5.22;;
69750;SDS011;57335;52.288;6.056;2024-01-11T00:58:07;17.35;;;5.13;;
69750;SDS011;57335;52.288;6.056;2024-01-11T01:00:34;9.10;;;3.88;;
69750;SDS011;57335;52.288;6.056;2024-01-11T01:05:27;8.80;;;2.83;;
69750;SDS011;57335;52.288;6.056;2024-01-11T01:10:20;9.40;;;3.03;;
69750;SDS011;57335;52.288;6.056;2024-01-11T01:12:47;14.75;;;4.35;;
69750;SDS011;57335;52.288;6.056;2024-01-11T01:15:13;18.13;;;5.95;;
69750;SDS011;57335;52.288;6.056;2024-01-11T01:17:41;14.95;;;4.80;;
69750;SDS011;57335;52.288;6.056;2024-01-11T01:20:07;12.20;;;4.50;;
69750;SDS011;57335;52.288;6.056;2024-01-11T01:22:35;12.50;;;4.45;;
69750;SDS011;57335;52.288;6.056;2024-01-11T01:25:01;12.63;;;3.97;;
69750;SDS011;57335;52.288;6.056;2024-01-11T01:27:28;14.98;;;5.47;;
69750;SDS011;57335;52.288;6.056;2024-01-11T01:29:55;13.55;;;5.70;;
69750;SDS011;57335;52.288;6.056;2024-01-11T01:32:21;16.90;;;5.97;;
69750;SDS011;57335;52.288;6.056;2024-01-11T01:34:48;14.20;;;4.57;;
69750;SDS011;57335;52.288;6.056;2024-01-11T01:37:15;9.07;;;3.85;;
69750;SDS011;57335;52.288;6.056;2024-01-11T01:39:42;10.88;;;4.18;;
69750;SDS011;57335;52.288;6.056;2024-01-11T01:44:35;8.05;;;3.90;;
69750;SDS011;57335;52.288;6.056;2024-01-11T01:49:29;16.42;;;5.53;;
69750;SDS011;57335;52.288;6.056;2024-01-11T01:54:22;15.77;;;6.00;;
69750;SDS011;57335;52.288;6.056;2024-01-11T01:56:50;18.25;;;5.78;;
69750;SDS011;57335;52.288;6.056;2024-01-11T01:59:18;20.20;;;6.63;;
69750;SDS011;57335;52.288;6.056;2024-01-11T02:01:45;22.00;;;7.07;;
69750;SDS011;57335;52.288;6.056;2024-01-11T02:04:12;19.27;;;7.20;;
69750;SDS011;57335;52.288;6.056;2024-01-11T02:06:38;20.48;;;7.57;;
69750;SDS011;57335;52.288;6.056;2024-01-11T02:09:06;24.63;;;9.23;;
69750;SDS011;57335;52.288;6.056;2024-01-11T02:11:34;20.58;;;8.50;;
69750;SDS011;57335;52.288;6.056;2024-01-11T02:16:28;23.48;;;7.13;;
69750;SDS011;57335;52.288;6.056;2024-01-11T02:18:54;21.80;;;8.23;;
69750;SDS011;57335;52.288;6.056;2024-01-11T02:26:29;21.13;;;7.35;;
69750;SDS011;57335;52.288;6.056;2024-01-11T02:28:55;21.65;;;7.65;;
69750;SDS011;57335;52.288;6.056;2024-01-11T02:31:22;19.70;;;7.75;;
69750;SDS011;57335;52.288;6.056;2024-01-11T02:33:49;20.50;;;7.53;;
69750;SDS011;57335;52.288;6.056;2024-01-11T02:36:17;22.23;;;7.82;;
69750;SDS011;57335;52.288;6.056;2024-01-11T02:38:46;26.30;;;8.77;;
69750;SDS011;57335;52.288;6.056;2024-01-11T02:41:14;25.70;;;9.10;;
69750;SDS011;57335;52.288;6.056;2024-01-11T02:43:48;26.05;;;9.65;;
69750;SDS011;57335;52.288;6.056;2024-01-11T02:46:15;21.73;;;8.02;;
69750;SDS011;57335;52.288;6.056;2024-01-11T02:48:43;26.35;;;9.07;;
69750;SDS011;57335;52.288;6.056;2024-01-11T02:53:36;19.25;;;7.45;;
69750;SDS011;57335;52.288;6.056;2024-01-11T02:58:29;21.42;;;8.30;;
69750;SDS011;57335;52.288;6.056;2024-01-11T03:00:56;21.48;;;8.63;;
69750;SDS011;57335;52.288;6.056;2024-01-11T03:03:22;25.50;;;9.10;;
69750;SDS011;57335;52.288;6.056;2024-01-11T03:05:49;22.30;;;7.72;;
69750;SDS011;57335;52.288;6.056;2024-01-11T03:08:16;19.90;;;7.15;;
69750;SDS011;57335;52.288;6.056;2024-01-11T03:10:42;23.60;;;7.63;;
69750;SDS011;57335;52.288;6.056;2024-01-11T03:13:09;25.65;;;9.65;;
69750;SDS011;57335;52.288;6.056;2024-01-11T03:15:36;27.15;;;8.95;;
69750;SDS011;57335;52.288;6.056;2024-01-11T03:18:02;26.20;;;9.95;;
69750;SDS011;57335;52.288;6.056;2024-01-11T03:20:30;24.05;;;9.23;;
69750;SDS011;57335;52.288;6.056;2024-01-11T03:22:56;22.52;;;9.10;;
69750;SDS011;57335;52.288;6.056;2024-01-11T03:27:50;26.10;;;8.55;;
69750;SDS011;57335;52.288;6.056;2024-01-11T03:30:16;22.13;;;7.22;;
69750;SDS011;57335;52.288;6.056;2024-01-11T03:32:43;16.23;;;6.00;;
69750;SDS011;57335;52.288;6.056;2024-01-11T03:35:10;14.25;;;6.05;;
69750;SDS011;57335;52.288;6.056;2024-01-11T03:37:37;19.20;;;8.32;;
69750;SDS011;57335;52.288;6.056;2024-01-11T03:40:04;11.75;;;4.85;;
69750;SDS011;57335;52.288;6.056;2024-01-11T03:42:31;19.20;;;7.38;;
69750;SDS011;57335;52.288;6.056;2024-01-11T03:44:58;14.85;;;6.40;;
69750;SDS011;57335;52.288;6.056;2024-01-11T03:47:24;24.63;;;9.77;;
69750;SDS011;57335;52.288;6.056;2024-01-11T03:49:51;24.67;;;9.70;;
69750;SDS011;57335;52.288;6.056;2024-01-11T03:52:17;19.88;;;7.38;;
69750;SDS011;57335;52.288;6.056;2024-01-11T03:54:44;21.13;;;9.27;;
69750;SDS011;57335;52.288;6.056;2024-01-11T03:57:11;22.63;;;7.93;;
69750;SDS011;57335;52.288;6.056;2024-01-11T03:59:37;32.17;;;10.68;;
69750;SDS011;57335;52.288;6.056;2024-01-11T04:02:04;22.73;;;9.02;;
69750;SDS011;57335;52.288;6.056;2024-01-11T04:04:31;25.85;;;10.50;;
69750;SDS011;57335;52.288;6.056;2024-01-11T04:06:57;27.25;;;9.65;;
69750;SDS011;57335;52.288;6.056;2024-01-11T04:09:24;23.45;;;9.98;;
69750;SDS011;57335;52.288;6.056;2024-01-11T04:14:17;20.33;;;7.47;;
69750;SDS011;57335;52.288;6.056;2024-01-11T04:16:44;18.50;;;6.97;;
69750;SDS011;57335;52.288;6.056;2024-01-11T04:19:10;7.90;;;4.00;;
69750;SDS011;57335;52.288;6.056;2024-01-11T04:21:37;10.30;;;4.88;;
69750;SDS011;57335;52.288;6.056;2024-01-11T04:24:07;19.98;;;5.85;;
69750;SDS011;57335;52.288;6.056;2024-01-11T04:26:34;11.63;;;4.47;;
69750;SDS011;57335;52.288;6.056;2024-01-11T04:29:01;16.25;;;6.90;;
69750;SDS011;57335;52.288;6.056;2024-01-11T04:31:27;17.35;;;7.00;;
69750;SDS011;57335;52.288;6.056;2024-01-11T04:33:54;26.63;;;9.57;;
69750;SDS011;57335;52.288;6.056;2024-01-11T04:36:21;21.48;;;9.73;;
69750;SDS011;57335;52.288;6.056;2024-01-11T04:38:47;10.32;;;4.68;;
69750;SDS011;57335;52.288;6.056;2024-01-11T04:41:14;15.77;;;6.18;;
69750;SDS011;57335;52.288;6.056;2024-01-11T04:43:42;12.32;;;5.47;;
69750;SDS011;57335;52.288;6.056;2024-01-11T04:48:43;17.92;;;6.63;;
69750;SDS011;57335;52.288;6.056;2024-01-11T04:51:11;20.42;;;7.07;;
69750;SDS011;57335;52.288;6.056;2024-01-11T04:53:42;19.88;;;8.30;;
69750;SDS011;57335;52.288;6.056;2024-01-11T04:56:10;25.15;;;8.73;;
69750;SDS011;57335;52.288;6.056;2024-01-11T04:58:41;25.00;;;7.28;;
69750;SDS011;57335;52.288;6.056;2024-01-11T05:01:12;26.63;;;10.65;;
69750;SDS011;57335;52.288;6.056;2024-01-11T05:03:40;30.90;;;11.68;;
69750;SDS011;57335;52.288;6.056;2024-01-11T05:06:07;29.50;;;11.13;;
69750;SDS011;57335;52.288;6.056;2024-01-11T05:08:34;32.90;;;10.70;;
69750;SDS011;57335;52.288;6.056;2024-01-11T05:11:01;31.33;;;11.45;;
69750;SDS011;57335;52.288;6.056;2024-01-11T05:15:54;25.05;;;8.98;;
69750;SDS011;57335;52.288;6.056;2024-01-11T05:18:20;29.10;;;10.70;;
69750;SDS011;57335;52.288;6.056;2024-01-11T05:20:47;31.92;;;9.93;;
69750;SDS011;57335;52.288;6.056;2024-01-11T05:25:40;23.83;;;10.07;;
69750;SDS011;57335;52.288;6.056;2024-01-11T05:28:07;29.77;;;9.25;;
69750;SDS011;57335;52.288;6.056;2024-01-11T05:30:33;32.88;;;11.55;;
69750;SDS011;57335;52.288;6.056;2024-01-11T05:35:27;27.05;;;11.02;;
69750;SDS011;57335;52.288;6.056;2024-01-11T05:40:23;25.55;;;10.43;;
69750;SDS011;57335;52.288;6.056;2024-01-11T05:42:52;26.75;;;9.10;;
69750;SDS011;57335;52.288;6.056;2024-01-11T05:45:18;27.90;;;11.13;;
69750;SDS011;57335;52.288;6.056;2024-01-11T05:47:57;24.67;;;11.10;;
69750;SDS011;57335;52.288;6.056;2024-01-11T05:50:24;25.95;;;9.75;;
69750;SDS011;57335;52.288;6.056;2024-01-11T05:52:51;25.17;;;9.60;;
69750;SDS011;57335;52.288;6.056;2024-01-11T05:55:20;30.20;;;10.60;;
69750;SDS011;57335;52.288;6.056;2024-01-11T05:57:46;27.95;;;10.07;;
69750;SDS011;57335;52.288;6.056;2024-01-11T06:00:13;29.40;;;10.93;;
69750;SDS011;57335;52.288;6.056;2024-01-11T06:02:40;31.30;;;11.05;;
69750;SDS011;57335;52.288;6.056;2024-01-11T06:10:09;20.75;;;8.60;;
69750;SDS011;57335;52.288;6.056;2024-01-11T06:12:36;26.23;;;9.73;;
69750;SDS011;57335;52.288;6.056;2024-01-11T06:15:06;29.75;;;10.20;;
69750;SDS011;57335;52.288;6.056;2024-01-11T06:17:33;38.80;;;10.63;;
69750;SDS011;57335;52.288;6.056;2024-01-11T06:20:09;26.48;;;9.93;;
69750;SDS011;57335;52.288;6.056;2024-01-11T06:22:37;34.58;;;10.13;;
69750;SDS011;57335;52.288;6.056;2024-01-11T06:25:05;26.15;;;9.60;;
69750;SDS011;57335;52.288;6.056;2024-01-11T06:27:37;26.65;;;9.25;;
69750;SDS011;57335;52.288;6.056;2024-01-11T06:30:04;35.38;;;11.45;;
69750;SDS011;57335;52.288;6.056;2024-01-11T06:32:31;34.45;;;13.18;;
69750;SDS011;57335;52.288;6.056;2024-01-11T06:34:58;28.08;;;10.63;;
69750;SDS011;57335;52.288;6.056;2024-01-11T06:37:24;31.10;;;11.68;;
69750;SDS011;57335;52.288;6.056;2024-01-11T06:39:51;28.13;;;10.98;;
69750;SDS011;57335;52.288;6.056;2024-01-11T06:44:45;35.58;;;12.95;;
69750;SDS011;57335;52.288;6.056;2024-01-11T06:47:11;29.00;;;10.88;;
69750;SDS011;57335;52.288;6.056;2024-01-11T06:49:38;36.30;;;12.35;;
69750;SDS011;57335;52.288;6.056;2024-01-11T06:52:06;33.78;;;11.93;;
69750;SDS011;57335;52.288;6.056;2024-01-11T06:56:59;34.85;;;11.98;;
69750;SDS011;57335;52.288;6.056;2024-01-11T07:01:52;38.17;;;12.02;;
69750;SDS011;57335;52.288;6.056;2024-01-11T07:06:47;32.50;;;11.43;;
69750;SDS011;57335;52.288;6.056;2024-01-11T07:09:13;33.67;;;11.80;;
69750;SDS011;57335;52.288;6.056;2024-01-11T07:11:40;35.33;;;12.30;;
69750;SDS011;57335;52.288;6.056;2024-01-11T07:14:08;36.55;;;12.43;;
69750;SDS011;57335;52.288;6.056;2024-01-11T07:16:35;28.90;;;11.65;;
69750;SDS011;57335;52.288;6.056;2024-01-11T07:19:02;36.80;;;13.32;;
69750;SDS011;57335;52.288;6.056;2024-01-11T07:21:29;38.13;;;11.85;;
69750;SDS011;57335;52.288;6.056;2024-01-11T07:23:58;42.90;;;13.80;;
69750;SDS011;57335;52.288;6.056;2024-01-11T07:26:25;37.47;;;13.43;;
69750;SDS011;57335;52.288;6.056;2024-01-11T07:28:52;34.08;;;12.30;;
69750;SDS011;57335;52.288;6.056;2024-01-11T07:31:21;35.97;;;12.05;;
69750;SDS011;57335;52.288;6.056;2024-01-11T07:33:48;33.95;;;13.02;;
69750;SDS011;57335;52.288;6.056;2024-01-11T07:36:15;33.70;;;13.07;;
69750;SDS011;57335;52.288;6.056;2024-01-11T07:38:41;40.58;;;13.65;;
69750;SDS011;57335;52.288;6.056;2024-01-11T07:43:34;30.10;;;10.75;;
69750;SDS011;57335;52.288;6.056;2024-01-11T07:46:17;41.30;;;14.57;;
69750;SDS011;57335;52.288;6.056;2024-01-11T07:48:54;36.20;;;12.80;;
69750;SDS011;57335;52.288;6.056;2024-01-11T07:53:47;36.00;;;12.82;;
69750;SDS011;57335;52.288;6.056;2024-01-11T07:56:14;39.33;;;14.43;;
69750;SDS011;57335;52.288;6.056;2024-01-11T08:01:09;32.30;;;11.45;;
69750;SDS011;57335;52.288;6.056;2024-01-11T08:03:36;36.88;;;12.75;;
69750;SDS011;57335;52.288;6.056;2024-01-11T08:06:03;36.50;;;13.00;;
69750;SDS011;57335;52.288;6.056;2024-01-11T08:08:30;37.38;;;12.88;;
69750;SDS011;57335;52.288;6.056;2024-01-11T08:10:57;32.17;;;12.05;;
69750;SDS011;57335;52.288;6.056;2024-01-11T08:13:24;32.13;;;10.75;;
69750;SDS011;57335;52.288;6.056;2024-01-11T08:15:50;27.52;;;9.48;;
69750;SDS011;57335;52.288;6.056;2024-01-11T08:18:20;33.75;;;12.27;;
69750;SDS011;57335;52.288;6.056;2024-01-11T08:20:46;26.13;;;10.40;;
69750;SDS011;57335;52.288;6.056;2024-01-11T08:23:14;28.65;;;10.35;;
69750;SDS011;57335;52.288;6.056;2024-01-11T08:28:08;26.27;;;10.10;;
69750;SDS011;57335;52.288;6.056;2024-01-11T08:30:34;21.40;;;7.20;;
69750;SDS011;57335;52.288;6.056;2024-01-11T08:33:01;40.22;;;12.43;;
69750;SDS011;57335;52.288;6.056;2024-01-11T08:37:54;19.90;;;8.40;;
69750;SDS011;57335;52.288;6.056;2024-01-11T08:40:21;26.77;;;9.38;;
69750;SDS011;57335;52.288;6.056;2024-01-11T08:42:47;15.35;;;6.13;;
69750;SDS011;57335;52.288;6.056;2024-01-11T08:45:14;23.67;;;7.65;;
69750;SDS011;57335;52.288;6.056;2024-01-11T08:47:45;21.27;;;4.63;;
69750;SDS011;57335;52.288;6.056;2024-01-11T08:50:12;23.60;;;7.25;;
69750;SDS011;57335;52.288;6.056;2024-01-11T08:52:46;26.55;;;7.90;;
69750;SDS011;57335;52.288;6.056;2024-01-11T08:55:13;29.42;;;8.57;;
69750;SDS011;57335;52.288;6.056;2024-01-11T09:00:06;31.67;;;8.25;;
69750;SDS011;57335;52.288;6.056;2024-01-11T09:02:33;24.95;;;7.22;;
69750;SDS011;57335;52.288;6.056;2024-01-11T09:05:01;31.70;;;9.85;;
69750;SDS011;57335;52.288;6.056;2024-01-11T09:10:00;24.77;;;6.80;;
69750;SDS011;57335;52.288;6.056;2024-01-11T09:12:27;26.63;;;8.90;;
69750;SDS011;57335;52.288;6.056;2024-01-11T09:14:53;32.75;;;8.85;;
69750;SDS011;57335;52.288;6.056;2024-01-11T09:17:21;42.45;;;9.57;;
69750;SDS011;57335;52.288;6.056;2024-01-11T09:19:48;35.15;;;9.65;;
69750;SDS011;57335;52.288;6.056;2024-01-11T09:24:41;36.25;;;9.95;;
69750;SDS011;57335;52.288;6.056;2024-01-11T09:27:08;46.28;;;10.90;;
69750;SDS011;57335;52.288;6.056;2024-01-11T09:29:34;35.60;;;8.73;;
69750;SDS011;57335;52.288;6.056;2024-01-11T09:34:28;35.58;;;9.82;;
69750;SDS011;57335;52.288;6.056;2024-01-11T09:36:54;49.88;;;10.07;;
69750;SDS011;57335;52.288;6.056;2024-01-11T09:39:25;47.13;;;11.07;;
69750;SDS011;57335;52.288;6.056;2024-01-11T09:41:57;38.97;;;10.95;;
69750;SDS011;57335;52.288;6.056;2024-01-11T09:44:26;39.88;;;11.15;;
69750;SDS011;57335;52.288;6.056;2024-01-11T09:46:53;49.40;;;9.95;;
69750;SDS011;57335;52.288;6.056;2024-01-11T09:49:21;53.05;;;11.40;;
69750;SDS011;57335;52.288;6.056;2024-01-11T09:51:49;33.70;;;9.45;;
69750;SDS011;57335;52.288;6.056;2024-01-11T09:54:17;42.10;;;11.77;;
69750;SDS011;57335;52.288;6.056;2024-01-11T09:56:47;40.03;;;11.07;;
69750;SDS011;57335;52.288;6.056;2024-01-11T09:59:20;46.72;;;10.23;;
69750;SDS011;57335;52.288;6.056;2024-01-11T10:04:17;35.03;;;10.18;;
69750;SDS011;57335;52.288;6.056;2024-01-11T10:06:43;40.40;;;10.40;;
69750;SDS011;57335;52.288;6.056;2024-01-11T10:09:12;42.15;;;10.73;;
69750;SDS011;57335;52.288;6.056;2024-01-11T10:11:39;37.42;;;9.85;;
69750;SDS011;57335;52.288;6.056;2024-01-11T10:14:06;38.65;;;10.18;;
69750;SDS011;57335;52.288;6.056;2024-01-11T10:16:33;35.47;;;9.68;;
69750;SDS011;57335;52.288;6.056;2024-01-11T10:21:26;37.40;;;11.13;;
69750;SDS011;57335;52.288;6.056;2024-01-11T10:23:53;46.28;;;12.32;;
69750;SDS011;57335;52.288;6.056;2024-01-11T10:26:20;34.75;;;9.63;;
69750;SDS011;57335;52.288;6.056;2024-01-11T10:28:48;37.45;;;10.07;;
69750;SDS011;57335;52.288;6.056;2024-01-11T10:31:14;36.53;;;9.63;;
69750;SDS011;57335;52.288;6.056;2024-01-11T10:33:41;43.38;;;11.52;;
69750;SDS011;57335;52.288;6.056;2024-01-11T10:36:08;36.95;;;10.18;;
69750;SDS011;57335;52.288;6.056;2024-01-11T10:38:38;46.33;;;11.52;;
69750;SDS011;57335;52.288;6.056;2024-01-11T10:41:07;38.58;;;9.95;;
69750;SDS011;57335;52.288;6.056;2024-01-11T10:43:37;35.45;;;10.85;;
69750;SDS011;57335;52.288;6.056;2024-01-11T10:46:05;42.40;;;10.63;;
69750;SDS011;57335;52.288;6.056;2024-01-11T10:48:43;41.30;;;11.38;;
69750;SDS011;57335;52.288;6.056;2024-01-11T10:51:11;49.10;;;12.73;;
69750;SDS011;57335;52.288;6.056;2024-01-11T10:53:46;38.92;;;11.20;;
69750;SDS011;57335;52.288;6.056;2024-01-11T10:56:17;41.85;;;10.95;;
69750;SDS011;57335;52.288;6.056;2024-01-11T10:58:44;44.80;;;12.27;;
69750;SDS011;57335;52.288;6.056;2024-01-11T11:01:13;39.42;;;10.50;;
69750;SDS011;57335;52.288;6.056;2024-01-11T11:03:40;41.70;;;10.38;;
69750;SDS011;57335;52.288;6.056;2024-01-11T11:06:09;38.08;;;10.18;;
69750;SDS011;57335;52.288;6.056;2024-01-11T11:08:37;47.38;;;11.25;;
69750;SDS011;57335;52.288;6.056;2024-01-11T11:11:04;42.85;;;11.68;;
69750;SDS011;57335;52.288;6.056;2024-01-11T11:13:34;37.45;;;10.63;;
69750;SDS011;57335;52.288;6.056;2024-01-11T11:16:01;38.70;;;10.27;;
69750;SDS011;57335;52.288;6.056;2024-01-11T11:18:30;33.60;;;11.38;;
69750;SDS011;57335;52.288;6.056;2024-01-11T11:20:59;39.55;;;10.57;;
69750;SDS011;57335;52.288;6.056;2024-01-11T11:23:26;41.67;;;10.90;;
69750;SDS011;57335;52.288;6.056;2024-01-11T11:25:53;40.38;;;10.52;;
69750;SDS011;57335;52.288;6.056;2024-01-11T11:28:23;38.67;;;11.27;;
69750;SDS011;57335;52.288;6.056;2024-01-11T11:30:52;39.13;;;10.27;;
69750;SDS011;57335;52.288;6.056;2024-01-11T11:33:19;33.75;;;10.52;;
69750;SDS011;57335;52.288;6.056;2024-01-11T11:35:50;35.13;;;10.63;;
69750;SDS011;57335;52.288;6.056;2024-01-11T11:38:22;39.35;;;11.20;;
69750;SDS011;57335;52.288;6.056;2024-01-11T11:40:51;39.05;;;11.55;;
69750;SDS011;57335;52.288;6.056;2024-01-11T11:43:20;41.40;;;10.52;;
69750;SDS011;57335;52.288;6.056;2024-01-11T11:45:48;35.22;;;10.25;;
69750;SDS011;57335;52.288;6.056;2024-01-11T11:51:09;38.38;;;11.50;;
69750;SDS011;57335;52.288;6.056;2024-01-11T11:53:46;41.53;;;11.18;;
69750;SDS011;57335;52.288;6.056;2024-01-11T11:56:18;40.55;;;12.00;;
69750;SDS011;57335;52.288;6.056;2024-01-11T11:58:46;39.55;;;11.65;;
69750;SDS011;57335;52.288;6.056;2024-01-11T12:01:14;39.45;;;11.55;;
69750;SDS011;57335;52.288;6.056;2024-01-11T12:03:44;40.15;;;11.65;;
69750;SDS011;57335;52.288;6.056;2024-01-11T12:06:18;36.00;;;11.23;;
69750;SDS011;57335;52.288;6.056;2024-01-11T12:08:47;39.25;;;11.27;;
69750;SDS011;57335;52.288;6.056;2024-01-11T12:11:17;35.00;;;10.93;;
69750;SDS011;57335;52.288;6.056;2024-01-11T12:13:46;35.63;;;10.55;;
69750;SDS011;57335;52.288;6.056;2024-01-11T12:16:16;38.60;;;11.25;;
69750;SDS011;57335;52.288;6.056;2024-01-11T12:18:43;36.90;;;10.60;;
69750;SDS011;57335;52.288;6.056;2024-01-11T12:21:10;33.35;;;10.52;;
69750;SDS011;57335;52.288;6.056;2024-01-11T12:23:38;39.58;;;11.57;;
69750;SDS011;57335;52.288;6.056;2024-01-11T12:26:06;35.17;;;11.18;;
69750;SDS011;57335;52.288;6.056;2024-01-11T12:28:41;33.88;;;10.15;;
69750;SDS011;57335;52.288;6.056;2024-01-11T12:31:09;36.00;;;10.93;;
69750;SDS011;57335;52.288;6.056;2024-01-11T12:33:36;36.00;;;10.40;;
69750;SDS011;57335;52.288;6.056;2024-01-11T12:36:05;40.08;;;11.63;;
69750;SDS011;57335;52.288;6.056;2024-01-11T12:38:34;37.65;;;11.60;;
69750;SDS011;57335;52.288;6.056;2024-01-11T12:41:01;34.53;;;9.55;;
69750;SDS011;57335;52.288;6.056;2024-01-11T12:43:28;39.65;;;10.95;;
69750;SDS011;57335;52.288;6.056;2024-01-11T12:45:55;35.33;;;11.45;;
69750;SDS011;57335;52.288;6.056;2024-01-11T12:48:22;41.33;;;12.30;;
69750;SDS011;57335;52.288;6.056;2024-01-11T12:50:50;34.25;;;10.63;;
69750;SDS011;57335;52.288;6.056;2024-01-11T12:53:35;35.42;;;10.40;;
69750;SDS011;57335;52.288;6.056;2024-01-11T12:56:03;42.65;;;11.90;;
69750;SDS011;57335;52.288;6.056;2024-01-11T12:58:37;38.75;;;10.52;;
69750;SDS011;57335;52.288;6.056;2024-01-11T13:01:04;43.83;;;13.02;;
69750;SDS011;57335;52.288;6.056;2024-01-11T13:03:34;43.70;;;14.30;;
69750;SDS011;57335;52.288;6.056;2024-01-11T13:06:04;40.60;;;11.35;;
69750;SDS011;57335;52.288;6.056;2024-01-11T13:08:32;43.67;;;13.57;;
69750;SDS011;57335;52.288;6.056;2024-01-11T13:10:58;35.47;;;11.27;;
69750;SDS011;57335;52.288;6.056;2024-01-11T13:13:25;42.83;;;13.57;;
69750;SDS011;57335;52.288;6.056;2024-01-11T13:15:52;39.08;;;12.75;;
69750;SDS011;57335;52.288;6.056;2024-01-11T13:20:45;30.25;;;10.35;;
69750;SDS011;57335;52.288;6.056;2024-01-11T13:25:41;34.67;;;10.38;;
69750;SDS011;57335;52.288;6.056;2024-01-11T13:28:11;35.28;;;11.50;;
69750;SDS011;57335;52.288;6.056;2024-01-11T13:30:39;27.50;;;9.45;;
69750;SDS011;57335;52.288;6.056;2024-01-11T13:33:07;38.40;;;11.45;;
69750;SDS011;57335;52.288;6.056;2024-01-11T13:35:34;34.13;;;10.10;;
69750;SDS011;57335;52.288;6.056;2024-01-11T13:38:02;38.45;;;12.20;;
69750;SDS011;57335;52.288;6.056;2024-01-11T13:40:29;31.25;;;10.63;;
69750;SDS011;57335;52.288;6.056;2024-01-11T13:42:56;38.30;;;12.30;;
69750;SDS011;57335;52.288;6.056;2024-01-11T13:45:23;33.15;;;10.98;;
69750;SDS011;57335;52.288;6.056;2024-01-11T13:47:52;34.40;;;10.48;;
69750;SDS011;57335;52.288;6.056;2024-01-11T13:50:20;34.17;;;11.38;;
69750;SDS011;57335;52.288;6.056;2024-01-11T13:52:50;33.40;;;10.70;;
69750;SDS011;57335;52.288;6.056;2024-01-11T13:55:17;37.08;;;11.98;;
69750;SDS011;57335;52.288;6.056;2024-01-11T13:57:44;34.78;;;11.75;;
69750;SDS011;57335;52.288;6.056;2024-01-11T14:00:11;32.72;;;11.60;;
69750;SDS011;57335;52.288;6.056;2024-01-11T14:02:38;38.70;;;11.48;;
69750;SDS011;57335;52.288;6.056;2024-01-11T14:05:08;39.28;;;12.20;;
69750;SDS011;57335;52.288;6.056;2024-01-11T14:07:41;30.20;;;10.52;;
69750;SDS011;57335;52.288;6.056;2024-01-11T14:10:08;36.10;;;10.85;;
69750;SDS011;57335;52.288;6.056;2024-01-11T14:12:35;32.72;;;11.60;;
69750;SDS011;57335;52.288;6.056;2024-01-11T14:15:03;32.75;;;10.20;;
69750;SDS011;57335;52.288;6.056;2024-01-11T14:17:32;30.00;;;10.38;;
69750;SDS011;57335;52.288;6.056;2024-01-11T14:20:00;31.00;;;10.88;;
69750;SDS011;57335;52.288;6.056;2024-01-11T14:22:28;38.63;;;10.98;;
69750;SDS011;57335;52.288;6.056;2024-01-11T14:24:55;35.78;;;11.70;;
69750;SDS011;57335;52.288;6.056;2024-01-11T14:29:49;32.90;;;10.65;;
69750;SDS011;57335;52.288;6.056;2024-01-11T14:32:16;27.70;;;8.98;;
69750;SDS011;57335;52.288;6.056;2024-01-11T14:34:59;33.55;;;10.68;;
69750;SDS011;57335;52.288;6.056;2024-01-11T14:37:32;37.83;;;10.73;;
69750;SDS011;57335;52.288;6.056;2024-01-11T14:40:00;22.38;;;7.82;;
69750;SDS011;57335;52.288;6.056;2024-01-11T14:42:27;31.20;;;10.30;;
69750;SDS011;57335;52.288;6.056;2024-01-11T14:44:54;31.27;;;10.65;;
69750;SDS011;57335;52.288;6.056;2024-01-11T14:47:21;31.95;;;10.90;;
69750;SDS011;57335;52.288;6.056;2024-01-11T14:49:48;35.42;;;10.95;;
69750;SDS011;57335;52.288;6.056;2024-01-11T14:52:16;28.95;;;9.95;;
69750;SDS011;57335;52.288;6.056;2024-01-11T14:54:45;33.28;;;10.00;;
69750;SDS011;57335;52.288;6.056;2024-01-11T14:57:13;34.45;;;10.32;;
69750;SDS011;57335;52.288;6.056;2024-01-11T14:59:40;30.02;;;9.40;;
69750;SDS011;57335;52.288;6.056;2024-01-11T15:02:07;31.40;;;9.63;;
69750;SDS011;57335;52.288;6.056;2024-01-11T15:04:34;31.35;;;9.55;;
69750;SDS011;57335;52.288;6.056;2024-01-11T15:09:27;32.97;;;8.43;;
69750;SDS011;57335;52.288;6.056;2024-01-11T15:11:53;26.70;;;9.15;;
69750;SDS011;57335;52.288;6.056;2024-01-11T15:14:20;30.50;;;9.65;;
69750;SDS011;57335;52.288;6.056;2024-01-11T15:19:14;29.63;;;8.38;;
69750;SDS011;57335;52.288;6.056;2024-01-11T15:21:41;26.60;;;8.32;;
69750;SDS011;57335;52.288;6.056;2024-01-11T15:24:15;24.52;;;7.30;;
69750;SDS011;57335;52.288;6.056;2024-01-11T15:26:45;26.30;;;8.50;;
69750;SDS011;57335;52.288;6.056;2024-01-11T15:29:12;29.92;;;8.93;;
69750;SDS011;57335;52.288;6.056;2024-01-11T15:31:39;28.77;;;9.25;;
69750;SDS011;57335;52.288;6.056;2024-01-11T15:34:08;28.42;;;8.13;;
69750;SDS011;57335;52.288;6.056;2024-01-11T15:36:35;30.48;;;10.52;;
69750;SDS011;57335;52.288;6.056;2024-01-11T15:39:01;29.10;;;9.82;;
69750;SDS011;57335;52.288;6.056;2024-01-11T15:41:45;32.60;;;9.10;;
69750;SDS011;57335;52.288;6.056;2024-01-11T15:44:13;23.10;;;7.22;;
69750;SDS011;57335;52.288;6.056;2024-01-11T15:46:40;27.20;;;8.68;;
69750;SDS011;57335;52.288;6.056;2024-01-11T15:51:33;27.73;;;8.68;;
69750;SDS011;57335;52.288;6.056;2024-01-11T15:54:00;26.73;;;8.63;;
69750;SDS011;57335;52.288;6.056;2024-01-11T15:56:28;31.23;;;9.10;;
69750;SDS011;57335;52.288;6.056;2024-01-11T15:58:55;32.83;;;10.82;;
69750;SDS011;57335;52.288;6.056;2024-01-11T16:01:22;31.73;;;9.98;;
69750;SDS011;57335;52.288;6.056;2024-01-11T16:03:49;33.10;;;10.52;;
69750;SDS011;57335;52.288;6.056;2024-01-11T16:06:18;36.20;;;10.73;;
69750;SDS011;57335;52.288;6.056;2024-01-11T16:08:45;33.05;;;9.52;;
69750;SDS011;57335;52.288;6.056;2024-01-11T16:11:14;30.55;;;10.27;;
69750;SDS011;57335;52.288;6.056;2024-01-11T16:13:40;28.40;;;10.27;;
69750;SDS011;57335;52.288;6.056;2024-01-11T16:16:12;32.50;;;11.23;;
69750;SDS011;57335;52.288;6.056;2024-01-11T16:18:39;31.60;;;10.82;;
69750;SDS011;57335;52.288;6.056;2024-01-11T16:21:06;33.25;;;10.20;;
69750;SDS011;57335;52.288;6.056;2024-01-11T16:23:33;38.72;;;11.68;;